Time;durP1;ratioP1;P1;durP2;ratioP2;P2;SDS_P1;SDS_P2;PMS_P1;PMS_P2;Temp;Humidity;BMP_temperature;BMP_pressure;BME280_temperature;BME280_humidity;BME280_pressure;Samples;Min_cycle;Max_cycle;Signal;HPM_P1;HPM_P2
2022/06/23 00:01:14;;;;;;;4.85;3.80;;;;;;;18.19;56.94;101052.38;5095831;28;20047;-59
2022/06/23 00:03:40;;;;;;;7.25;4.45;;;;;;;18.22;57.09;101056.69;5096508;28;20120;-58
2022/06/23 00:06:33;;;;;;;7.97;4.47;;;;;;;18.16;57.54;101052.53;5096248;28;20411;-58
2022/06/23 00:08:59;;;;;;;7.80;4.60;;;;;;;18.15;57.90;101047.28;5095899;28;20046;-58
2022/06/23 00:11:26;;;;;;;7.22;4.30;;;;;;;18.10;58.21;101055.41;5095870;28;20032;-58
2022/06/23 00:14:02;;;;;;;7.43;4.40;;;;;;;18.03;58.83;101054.78;5095928;28;20389;-57
2022/06/23 00:16:27;;;;;;;7.72;4.03;;;;;;;18.02;59.22;101046.91;5095876;28;20055;-57
2022/06/23 00:18:53;;;;;;;8.80;4.85;;;;;;;17.98;59.80;101050.63;5095171;28;20446;-58
2022/06/23 00:21:32;;;;;;;8.15;4.63;;;;;;;17.97;59.42;101055.06;5095681;28;20039;-57
2022/06/23 00:24:04;;;;;;;9.48;4.28;;;;;;;17.99;59.48;101047.91;5095564;28;20032;-58
2022/06/23 00:26:32;;;;;;;;;;;;;;;18.01;57.65;101045.19;5096130;28;20032;-58
2022/06/23 00:29:14;;;;;;;7.10;4.60;;;;;;;17.90;59.76;101044.75;5095666;28;19916;-58
2022/06/23 00:31:44;;;;;;;;;;;;;;;17.91;58.00;101038.53;5096269;28;20411;-57
2022/06/23 00:34:36;;;;;;;6.53;4.47;;;;;;;17.85;60.29;101054.66;5095352;28;19919;-58
2022/06/23 00:37:10;;;;;;;8.95;4.95;;;;;;;17.83;61.21;101056.53;5095710;28;20111;-58
2022/06/23 00:40:07;;;;;;;8.68;5.00;;;;;;;17.80;60.71;101054.88;5095089;28;20119;-57
2022/06/23 00:42:39;;;;;;;9.77;4.72;;;;;;;17.67;62.96;101046.53;5076044;28;20059;-58
2022/06/23 00:45:10;;;;;;;10.75;5.68;;;;;;;17.65;63.23;101053.69;5095415;28;20032;-57
2022/06/23 00:47:43;;;;;;;6.80;4.80;;;;;;;17.60;63.91;101052.97;5095586;28;20068;-58
2022/06/23 00:50:50;;;;;;;8.63;5.28;;;;;;;17.52;63.41;101054.19;5095205;28;20281;-59
2022/06/23 00:53:24;;;;;;;8.25;5.35;;;;;;;17.40;65.27;101052.88;5048029;28;20040;-59
2022/06/23 00:56:00;;;;;;;8.70;5.40;;;;;;;17.36;65.72;101038.03;5095301;28;20115;-57
2022/06/23 00:58:38;;;;;;;9.88;5.88;;;;;;;17.34;65.24;101027.50;5095092;28;20028;-57
2022/06/23 01:01:19;;;;;;;8.68;5.60;;;;;;;17.31;66.36;101026.78;5095091;28;20031;-57
2022/06/23 01:04:17;;;;;;;9.07;5.72;;;;;;;17.31;66.44;101032.94;5095003;28;20089;-57
2022/06/23 01:06:53;;;;;;;8.77;5.72;;;;;;;17.28;67.50;101035.69;5095065;28;20052;-56
2022/06/23 01:09:40;;;;;;;11.30;6.68;;;;;;;17.16;68.94;101022.91;5095378;28;20031;-58
2022/06/23 01:12:29;;;;;;;11.07;6.70;;;;;;;17.13;67.99;101025.72;5098600;28;20039;-58
2022/06/23 01:15:16;;;;;;;11.52;6.60;;;;;;;17.09;68.36;101015.28;5099350;28;20024;-58
2022/06/23 01:17:50;;;;;;;10.05;6.50;;;;;;;17.05;69.81;101031.25;5099330;28;20031;-58
2022/06/23 01:20:25;;;;;;;10.32;6.55;;;;;;;17.09;69.68;101032.03;5099135;28;20035;-59
2022/06/23 01:22:50;;;;;;;8.60;6.97;;;;;;;17.09;71.14;101031.16;5098910;28;20020;-58
2022/06/23 01:25:49;;;;;;;10.10;7.57;;;;;;;17.14;69.68;101029.22;5098854;28;20450;-58
2022/06/23 01:28:27;;;;;;;10.15;6.60;;;;;;;17.15;70.90;101026.47;5099730;28;20583;-58
2022/06/23 01:31:11;;;;;;;13.95;7.00;;;;;;;17.20;69.73;101027.19;5098911;28;20359;-58
2022/06/23 01:33:43;;;;;;;10.20;7.10;;;;;;;17.09;71.17;101032.03;5099079;28;20449;-58
2022/06/23 01:36:22;;;;;;;11.05;7.38;;;;;;;17.05;71.78;101028.63;5098680;28;20054;-58
2022/06/23 01:38:47;;;;;;;10.40;7.18;;;;;;;17.02;72.89;101028.72;5098858;28;20119;-58
2022/06/23 01:41:19;;;;;;;10.67;7.37;;;;;;;16.98;72.17;101016.53;5098932;28;20063;-59
2022/06/23 01:43:52;;;;;;;13.63;7.95;;;;;;;16.96;73.63;101039.56;5098510;28;20036;-59
2022/06/23 01:46:29;;;;;;;10.35;7.57;;;;;;;16.99;72.88;101034.13;5098507;28;20042;-58
2022/06/23 01:48:58;;;;;;;14.15;7.72;;;;;;;16.96;73.84;101030.75;5098662;28;20043;-59
2022/06/23 01:51:29;;;;;;;11.27;7.80;;;;;;;16.96;74.14;101036.03;5098930;28;20031;-58
2022/06/23 01:54:21;;;;;;;11.15;7.93;;;;;;;17.01;72.90;101032.28;5098316;28;20028;-58
2022/06/23 01:57:01;;;;;;;10.88;7.38;;;;;;;16.88;73.87;101031.03;5098432;28;20185;-58
2022/06/23 01:59:41;;;;;;;12.50;7.95;;;;;;;16.82;75.76;101027.72;5098485;28;20028;-57
2022/06/23 02:02:15;;;;;;;11.70;8.55;;;;;;;16.89;74.91;101030.09;5098246;28;20115;-59
2022/06/23 02:05:02;;;;;;;12.77;8.88;;;;;;;16.81;74.19;101024.22;5098415;28;20040;-58
2022/06/23 02:07:39;;;;;;;11.20;8.38;;;;;;;16.79;75.71;101027.88;5098480;28;20036;-58
2022/06/23 02:10:18;;;;;;;11.73;8.23;;;;;;;16.82;75.64;101017.16;5098361;28;20020;-58
2022/06/23 02:12:50;;;;;;;15.73;9.18;;;;;;;16.78;76.36;101018.22;5098007;28;20385;-58
2022/06/23 02:15:25;;;;;;;14.05;8.38;;;;;;;16.74;76.64;101014.81;5097956;28;20025;-58
2022/06/23 02:18:26;;;;;;;11.75;8.18;;;;;;;16.77;75.46;101020.00;5098092;28;20103;-57
2022/06/23 02:20:57;;;;;;;13.02;8.07;;;;;;;16.79;76.37;101015.50;5098057;28;20028;-59
2022/06/23 02:23:53;;;;;;;15.90;8.30;;;;;;;16.75;75.94;101013.88;5097857;28;20036;-58
2022/06/23 02:26:30;;;;;;;13.70;8.82;;;;;;;16.66;77.46;101008.91;5087465;28;20274;-58
2022/06/23 02:29:04;;;;;;;15.05;9.05;;;;;;;16.60;78.00;101011.78;5097978;28;20044;-58
2022/06/23 02:31:46;;;;;;;12.38;8.50;;;;;;;16.57;77.59;101009.22;5097883;28;20039;-58
2022/06/23 02:34:23;;;;;;;13.73;8.77;;;;;;;16.56;78.42;101016.28;5097615;28;20039;-59
2022/06/23 02:37:01;;;;;;;12.35;9.25;;;;;;;16.53;78.66;101011.09;5097748;28;20058;-58
2022/06/23 02:39:52;;;;;;;14.18;9.57;;;;;;;16.60;77.05;101006.47;5097525;28;20347;-58
2022/06/23 02:42:34;;;;;;;13.18;8.80;;;;;;;16.64;78.73;101013.41;5097276;28;20501;-57
2022/06/23 02:45:43;;;;;;;15.60;9.43;;;;;;;16.70;76.72;101016.69;5098086;28;20047;-58
2022/06/23 02:48:49;;;;;;;16.73;9.20;;;;;;;16.68;76.98;101021.16;5097610;28;20056;-59
2022/06/23 02:51:39;;;;;;;13.48;9.70;;;;;;;16.63;78.29;101015.16;5096723;28;20442;-58
2022/06/23 02:54:41;;;;;;;15.20;9.02;;;;;;;16.58;77.62;101003.03;5097690;28;20043;-59
2022/06/23 02:57:25;;;;;;;15.60;9.80;;;;;;;16.50;78.09;101010.34;5079549;28;20106;-57
2022/06/23 03:00:14;;;;;;;16.45;9.20;;;;;;;16.40;79.59;100995.75;5097454;28;20032;-57
2022/06/23 03:02:58;;;;;;;16.73;9.70;;;;;;;16.33;79.21;100992.44;5049402;28;20115;-59
2022/06/23 03:05:59;;;;;;;14.32;9.82;;;;;;;16.34;78.96;101000.31;5097183;28;20108;-59
2022/06/23 03:08:30;;;;;;;15.20;9.75;;;;;;;16.43;79.64;100996.50;5097241;28;20354;-57
2022/06/23 03:10:59;;;;;;;17.45;10.10;;;;;;;16.45;79.59;100994.66;5096937;28;20054;-59
2022/06/23 03:13:29;;;;;;;14.00;10.05;;;;;;;16.39;79.58;100994.03;5096834;28;20040;-58
2022/06/23 03:16:24;;;;;;;16.13;9.57;;;;;;;16.36;79.10;100982.66;5096740;28;20394;-58
2022/06/23 03:19:06;;;;;;;16.40;9.90;;;;;;;16.33;79.05;100979.25;5097016;28;20023;-58
2022/06/23 03:21:42;;;;;;;15.10;9.70;;;;;;;16.34;79.42;100980.97;5096686;28;20036;-58
2022/06/23 03:24:10;;;;;;;17.35;9.27;;;;;;;16.23;80.07;100981.34;5096612;28;20286;-58
2022/06/23 03:26:45;;;;;;;13.60;9.32;;;;;;;16.22;79.86;100978.75;5096876;28;20134;-58
2022/06/23 03:29:20;;;;;;;15.32;9.40;;;;;;;16.11;80.33;100979.09;5096410;28;20055;-58
2022/06/23 03:32:01;;;;;;;14.27;10.00;;;;;;;16.11;80.64;100976.47;5096562;28;20126;-58
2022/06/23 03:34:34;;;;;;;14.63;9.73;;;;;;;16.19;80.40;100985.00;5096114;28;20036;-58
2022/06/23 03:37:08;;;;;;;13.07;9.95;;;;;;;16.22;80.23;100991.97;5096441;28;20375;-59
2022/06/23 03:42:54;;;;;;;13.77;9.30;;;;;;;16.21;79.50;100992.88;5070339;28;20051;-58
2022/06/23 03:45:29;;;;;;;13.13;9.35;;;;;;;16.17;80.32;101000.03;5096431;28;20052;-58
2022/06/23 03:48:05;;;;;;;15.02;9.45;;;;;;;16.20;79.48;100999.06;5096244;28;20354;-58
2022/06/23 03:51:00;;;;;;;14.25;9.50;;;;;;;16.20;78.98;100989.38;5096138;28;20084;-57
2022/06/23 03:53:44;;;;;;;15.57;10.13;;;;;;;16.16;79.43;100995.66;5096546;28;20035;-58
2022/06/23 03:56:16;;;;;;;12.88;9.27;;;;;;;16.19;79.68;101002.63;5096395;28;20115;-57
2022/06/23 03:58:59;;;;;;;12.32;9.27;;;;;;;16.22;79.75;101003.41;5096032;28;20479;-57
2022/06/23 04:01:33;;;;;;;15.45;9.70;;;;;;;16.23;79.39;100996.34;5095677;28;20107;-58
2022/06/23 04:04:04;;;;;;;15.57;9.45;;;;;;;16.24;79.44;101000.69;5095878;28;20107;-57
2022/06/23 04:06:37;;;;;;;14.82;9.70;;;;;;;16.21;79.03;100990.25;5096158;28;20035;-58
2022/06/23 04:09:16;;;;;;;16.85;9.65;;;;;;;16.23;78.86;100991.06;5096218;28;20500;-58
2022/06/23 04:11:44;;;;;;;12.57;9.35;;;;;;;16.25;79.45;100994.50;5096171;28;20428;-58
2022/06/23 04:14:15;;;;;;;13.32;9.13;;;;;;;16.16;79.19;100990.38;5095927;28;20093;-57
2022/06/23 04:16:41;;;;;;;13.30;9.47;;;;;;;16.16;79.31;100985.09;5095625;28;20032;-58
2022/06/23 04:19:14;;;;;;;14.38;9.30;;;;;;;16.19;78.82;100985.00;5095585;28;20427;-57
2022/06/23 04:21:45;;;;;;;13.18;9.70;;;;;;;16.21;78.88;100977.03;5096004;28;20082;-57
2022/06/23 04:24:17;;;;;;;15.20;9.23;;;;;;;16.18;77.81;100972.72;5095410;28;20111;-57
2022/06/23 04:26:44;;;;;;;;;;;;;;;16.23;76.81;100970.78;5096348;28;20352;-58
2022/06/23 04:29:16;;;;;;;11.20;8.70;;;;;;;16.21;77.15;100977.03;5095321;28;19974;-57
2022/06/23 04:32:03;;;;;;;13.55;9.35;;;;;;;16.25;77.41;100979.53;5095246;28;20028;-58
2022/06/23 04:34:35;;;;;;;15.40;8.57;;;;;;;16.34;76.45;100988.91;5095372;28;20055;-58
2022/06/23 04:37:00;;;;;;;12.98;8.30;;;;;;;16.46;75.59;100987.59;5095344;28;20464;-58
2022/06/23 04:39:41;;;;;;;9.90;8.32;;;;;;;16.53;75.44;101000.53;5094941;28;20107;-57
2022/06/23 04:42:16;;;;;;;12.65;8.40;;;;;;;16.58;74.98;100988.03;5095508;28;20035;-57
2022/06/23 04:44:47;;;;;;;15.35;8.63;;;;;;;16.58;75.58;100997.75;5094845;28;20105;-58
2022/06/23 04:47:20;;;;;;;11.57;8.35;;;;;;;16.64;74.01;101002.81;5094926;28;20032;-57
2022/06/23 04:49:56;;;;;;;12.15;7.80;;;;;;;16.74;73.62;100991.03;5094951;28;20038;-58
2022/06/23 04:52:41;;;;;;;13.38;7.72;;;;;;;16.76;73.92;100988.31;5095153;28;20077;-59
2022/06/23 04:55:15;;;;;;;14.45;8.02;;;;;;;16.80;73.86;100987.28;5095303;28;20028;-57
2022/06/23 04:57:59;;;;;;;11.52;7.53;;;;;;;16.84;73.23;100984.47;5095066;28;20074;-58
2022/06/23 05:00:36;;;;;;;11.93;8.00;;;;;;;16.89;72.87;100982.53;5094821;28;20028;-59
2022/06/23 05:03:14;;;;;;;15.65;8.27;;;;;;;16.94;73.70;100985.88;5095449;28;20108;-57
2022/06/23 05:05:41;;;;;;;10.35;7.68;;;;;;;16.97;73.28;100998.13;5095336;28;20032;-59
2022/06/23 05:08:08;;;;;;;11.15;7.15;;;;;;;17.08;72.10;100992.41;5094944;28;20067;-58
2022/06/23 05:10:37;;;;;;;11.73;7.90;;;;;;;17.08;71.78;100987.13;5094898;28;20043;-57
2022/06/23 05:13:08;;;;;;;10.07;7.57;;;;;;;17.12;72.15;100994.03;5094949;28;20039;-58
2022/06/23 05:15:43;;;;;;;11.50;7.18;;;;;;;17.15;71.77;100997.38;5095139;28;20425;-58
2022/06/23 05:18:11;;;;;;;12.32;7.82;;;;;;;17.15;71.08;100991.25;5095159;28;20309;-58
2022/06/23 05:20:39;;;;;;;11.30;7.10;;;;;;;17.19;71.33;100998.16;5094785;28;20059;-57
2022/06/23 05:23:12;;;;;;;12.00;7.35;;;;;;;17.23;71.17;101000.63;5094870;28;20028;-57
2022/06/23 05:25:43;;;;;;;9.90;7.45;;;;;;;17.28;70.65;100985.44;5095067;28;20027;-58
2022/06/23 05:28:15;;;;;;;9.70;7.22;;;;;;;17.28;70.74;100992.50;5094573;28;20048;-58
2022/06/23 05:30:48;;;;;;;10.02;7.22;;;;;;;17.31;70.04;100982.69;5095038;28;20058;-58
2022/06/23 05:33:22;;;;;;;11.68;7.40;;;;;;;17.39;70.01;100988.53;5094900;28;20089;-58
2022/06/23 05:35:56;;;;;;;11.02;7.32;;;;;;;17.44;70.02;100992.78;5094433;28;20363;-58
2022/06/23 05:38:39;;;;;;;9.23;6.95;;;;;;;17.55;69.50;100999.34;5094133;28;20035;-58
2022/06/23 05:41:27;;;;;;;11.48;7.30;;;;;;;17.62;68.71;100986.75;5094526;28;20024;-58
2022/06/23 05:43:56;;;;;;;13.43;7.55;;;;;;;17.71;68.92;100991.69;5093508;28;20047;-59
2022/06/23 05:46:23;;;;;;;16.40;7.88;;;;;;;17.78;68.54;100984.38;5094355;28;20032;-58
2022/06/23 05:48:57;;;;;;;13.02;7.43;;;;;;;17.86;68.62;100980.47;5094393;28;20080;-58
2022/06/23 05:51:50;;;;;;;11.68;7.63;;;;;;;17.97;68.43;100994.16;5094141;28;20024;-58
2022/06/23 05:54:27;;;;;;;12.02;7.25;;;;;;;18.05;67.77;100992.03;5094343;28;20032;-59
2022/06/23 05:56:58;;;;;;;11.45;7.40;;;;;;;18.14;67.44;100990.78;5095853;28;20028;-58
2022/06/23 05:59:54;;;;;;;9.73;7.35;;;;;;;18.36;67.02;100991.59;5098058;28;20032;-59
2022/06/23 06:02:26;;;;;;;13.25;8.25;;;;;;;19.42;62.25;100991.19;5098022;28;20055;-59
2022/06/23 06:04:56;;;;;;;9.13;7.22;;;;;;;19.87;60.66;100997.03;5097601;28;20089;-59
2022/06/23 06:07:26;;;;;;;11.85;8.15;;;;;;;19.84;60.05;100983.91;5098154;28;20046;-58
2022/06/23 06:09:54;;;;;;;11.23;7.70;;;;;;;19.55;60.58;100988.84;5097877;28;20039;-58
2022/06/23 06:12:23;;;;;;;12.38;7.30;;;;;;;19.39;61.65;100975.41;5098440;28;20227;-58
2022/06/23 06:14:57;;;;;;;12.77;7.95;;;;;;;19.28;62.77;100979.50;5098565;28;20039;-58
2022/06/23 06:17:25;;;;;;;9.70;7.72;;;;;;;19.20;63.23;100985.19;5097961;28;20089;-57
2022/06/23 06:19:53;;;;;;;12.05;7.70;;;;;;;19.17;63.58;100990.63;5097823;28;20067;-57
2022/06/23 06:22:26;;;;;;;11.57;7.63;;;;;;;19.17;63.68;100981.81;5097901;28;20063;-58
2022/06/23 06:24:55;;;;;;;9.15;7.05;;;;;;;19.13;63.14;100979.31;5097821;28;20336;-60
2022/06/23 06:27:21;;;;;;;10.75;6.97;;;;;;;19.16;64.80;100985.41;5098152;28;20028;-59
2022/06/23 06:29:48;;;;;;;11.55;7.28;;;;;;;19.26;64.17;100979.56;5102176;28;20048;-57
2022/06/23 06:32:31;;;;;;;9.90;7.38;;;;;;;19.31;64.33;100990.84;5100603;28;20032;-57
2022/06/23 06:35:36;;;;;;;15.63;7.80;;;;;;;19.36;63.89;100990.63;5097697;28;20467;-59
2022/06/23 06:38:17;;;;;;;13.80;7.72;;;;;;;19.38;63.34;100989.63;5097504;28;20103;-59
2022/06/23 06:40:46;;;;;;;13.95;7.50;;;;;;;19.45;63.34;100990.19;5097471;28;20102;-60
2022/06/23 06:43:20;;;;;;;10.40;7.57;;;;;;;19.52;63.38;100989.00;5097347;28;20040;-59
2022/06/23 06:45:46;;;;;;;13.27;7.75;;;;;;;19.60;63.43;100986.81;5097439;28;20038;-58
2022/06/23 06:48:35;;;;;;;10.65;7.00;;;;;;;19.64;64.13;100972.47;5097294;28;20024;-59
2022/06/23 06:51:06;;;;;;;12.73;7.30;;;;;;;19.70;63.32;100976.63;5097998;28;20043;-58
2022/06/23 06:53:37;;;;;;;12.15;6.95;;;;;;;19.79;63.68;100974.38;5097362;28;20055;-59
2022/06/23 06:56:17;;;;;;;13.00;6.53;;;;;;;20.03;63.36;100974.09;5097380;28;20028;-58
2022/06/23 06:59:10;;;;;;;8.35;6.78;;;;;;;20.31;62.58;100982.38;5097029;28;20067;-59
2022/06/23 07:01:39;;;;;;;10.93;7.45;;;;;;;20.44;61.07;100985.28;5096904;28;20499;-60
2022/06/23 07:04:04;;;;;;;9.98;7.55;;;;;;;20.45;60.54;100992.31;5105298;28;20086;-60
2022/06/23 07:06:47;;;;;;;9.05;7.25;;;;;;;20.46;61.73;100992.22;5117246;28;20466;-57
2022/06/23 07:09:26;;;;;;;10.38;6.75;;;;;;;20.53;61.85;100994.56;5116085;28;20039;-57
2022/06/23 07:12:06;;;;;;;16.25;7.75;;;;;;;20.52;61.02;100998.19;5113813;28;20131;-58
2022/06/23 07:15:03;;;;;;;14.38;6.80;;;;;;;20.61;61.84;100998.53;5099106;28;20470;-58
2022/06/23 07:17:37;;;;;;;9.43;7.05;;;;;;;20.65;61.05;100993.94;5096438;28;20032;-58
2022/06/23 07:20:13;;;;;;;10.15;6.53;;;;;;;20.74;61.21;100980.16;5105620;28;20484;-59
2022/06/23 07:22:50;;;;;;;11.18;7.25;;;;;;;20.87;61.74;100981.22;5105453;28;20358;-59
2022/06/23 07:25:22;;;;;;;12.35;6.75;;;;;;;20.96;62.07;100972.72;5105221;28;20168;-59
2022/06/23 07:27:53;;;;;;;;;;;;;;;20.98;62.18;100977.97;5107774;28;20040;-54
2022/06/23 07:30:22;;;;;;;14.55;6.82;;;;;;;21.07;62.99;100973.00;5105473;28;19912;-53
2022/06/23 07:33:03;;;;;;;13.15;7.15;;;;;;;21.24;63.49;100977.44;5108204;28;20061;-54
2022/06/23 07:35:43;;;;;;;13.77;7.75;;;;;;;21.36;63.47;100974.06;5117035;28;20332;-53
2022/06/23 07:38:25;;;;;;;11.30;7.05;;;;;;;21.48;63.62;100969.84;5110930;28;20035;-53
2022/06/23 07:41:02;;;;;;;11.95;7.80;;;;;;;21.55;63.86;100973.91;5115791;28;20035;-55
2022/06/23 07:43:49;;;;;;;11.02;7.90;;;;;;;21.70;63.52;100980.16;5116843;28;20055;-54
2022/06/23 07:46:14;;;;;;;11.98;7.18;;;;;;;21.88;63.89;100973.75;5116560;28;20103;-55
2022/06/23 07:48:41;;;;;;;14.15;7.40;;;;;;;22.02;63.87;100972.97;5103734;28;20131;-55
2022/06/23 07:51:10;;;;;;;11.43;8.25;;;;;;;22.11;63.62;100980.44;5096056;28;20032;-55
2022/06/23 07:53:39;;;;;;;12.23;8.15;;;;;;;22.28;64.21;100980.31;5095944;28;20032;-51
2022/06/23 07:56:08;;;;;;;12.40;8.05;;;;;;;22.22;63.77;100962.00;5096024;28;20379;-61
2022/06/23 07:58:36;;;;;;;11.68;7.82;;;;;;;22.36;64.37;100969.16;5096035;28;20453;-61
2022/06/23 08:01:13;;;;;;;12.48;7.97;;;;;;;22.47;63.80;100967.59;5095815;28;20032;-61
2022/06/23 08:03:55;;;;;;;14.45;8.27;;;;;;;22.58;63.45;100970.44;5096254;28;20125;-60
2022/06/23 08:06:21;;;;;;;11.57;7.10;;;;;;;22.54;63.99;100965.38;5095746;28;20153;-71
2022/06/23 08:08:50;;;;;;;10.30;7.75;;;;;;;22.56;63.93;100968.81;5096033;28;20064;-62
2022/06/23 08:14:16;;;;;;;12.00;7.25;;;;;;;22.68;64.77;100967.22;5095673;28;20063;-59
2022/06/23 08:16:49;;;;;;;12.23;7.10;;;;;;;22.73;65.60;100967.78;5095674;28;20089;-60
2022/06/23 08:19:30;;;;;;;11.95;6.75;;;;;;;22.78;64.73;100960.38;5098192;28;20034;-61
2022/06/23 08:22:03;;;;;;;14.20;6.68;;;;;;;22.85;64.86;100964.41;5104824;28;20096;-60
2022/06/23 08:24:29;;;;;;;11.55;6.78;;;;;;;22.91;65.05;100970.19;5103107;28;20031;-60
2022/06/23 08:27:01;;;;;;;13.60;6.65;;;;;;;22.96;64.35;100959.22;5095831;28;20039;-60
2022/06/23 08:29:33;;;;;;;13.50;6.22;;;;;;;22.89;63.77;100956.06;5095546;28;20071;-60
2022/06/23 08:31:59;;;;;;;14.27;6.53;;;;;;;23.01;64.14;100961.63;5095643;28;20036;-60
2022/06/23 08:34:25;;;;;;;9.50;5.25;;;;;;;23.13;63.77;100964.34;5095377;28;20028;-59
2022/06/23 08:36:55;;;;;;;11.18;5.22;;;;;;;23.25;62.61;100960.91;5095179;28;20103;-59
2022/06/23 08:39:32;;;;;;;11.10;5.78;;;;;;;23.29;62.52;100958.03;5095259;28;20028;-58
2022/06/23 08:42:22;;;;;;;12.00;5.63;;;;;;;23.29;63.18;100942.00;5095228;28;20024;-59
2022/06/23 08:45:27;;;;;;;13.35;5.53;;;;;;;23.45;63.07;100953.41;5095261;28;20100;-61
2022/06/23 08:47:57;;;;;;;10.55;5.72;;;;;;;23.58;63.35;100952.53;5095239;28;20028;-60
2022/06/23 08:50:36;;;;;;;11.48;5.80;;;;;;;23.65;62.50;100961.00;5095245;28;20114;-59
2022/06/23 08:53:15;;;;;;;12.32;6.03;;;;;;;23.70;62.56;100947.34;5098314;28;20031;-60
2022/06/23 08:55:48;;;;;;;14.98;5.63;;;;;;;23.92;63.02;100945.78;5112103;28;20039;-60
2022/06/23 08:58:23;;;;;;;12.52;5.30;;;;;;;24.34;62.02;100946.53;5095327;28;20051;-59
2022/06/23 09:01:19;;;;;;;11.65;5.00;;;;;;;24.74;60.48;100949.97;5095839;28;20020;-60
2022/06/23 09:04:07;;;;;;;6.60;4.57;;;;;;;25.04;59.50;100949.63;5097594;28;20042;-60
2022/06/23 09:06:42;;;;;;;11.90;4.40;;;;;;;25.40;58.44;100942.56;5105483;28;20062;-60
2022/06/23 09:09:26;;;;;;;10.18;3.83;;;;;;;25.96;56.51;100941.03;5104732;28;20429;-60
2022/06/23 09:12:17;;;;;;;9.23;4.18;;;;;;;26.50;54.49;100938.59;5113781;28;20039;-61
2022/06/23 09:15:06;;;;;;;7.85;4.05;;;;;;;27.32;52.84;100945.44;5099177;28;20466;-60
2022/06/23 09:17:53;;;;;;;8.82;4.20;;;;;;;28.01;51.29;100935.19;5094920;28;20031;-60
2022/06/23 09:20:37;;;;;;;9.20;4.07;;;;;;;28.49;48.04;100933.81;5094737;28;20321;-60
2022/06/23 09:23:21;;;;;;;6.55;3.78;;;;;;;29.16;48.83;100925.19;5095007;28;20039;-60
2022/06/23 09:26:22;;;;;;;9.13;3.85;;;;;;;29.93;46.92;100930.69;5102751;28;20039;-60
2022/06/23 09:28:55;;;;;;;7.35;3.30;;;;;;;30.05;45.19;100925.00;5108875;28;20112;-59
2022/06/23 09:31:41;;;;;;;9.10;3.80;;;;;;;30.51;44.83;100920.63;5103171;28;20111;-60
2022/06/23 09:34:35;;;;;;;10.60;3.92;;;;;;;30.79;44.58;100924.25;5099298;28;20324;-60
2022/06/23 09:37:45;;;;;;;8.57;3.55;;;;;;;31.01;43.77;100909.47;5044302;28;20423;-60
2022/06/23 09:40:27;;;;;;;7.93;3.63;;;;;;;29.88;45.76;100922.16;5019739;28;20131;-60
2022/06/23 09:43:04;;;;;;;;;;;;;;;29.74;46.93;100915.34;5099234;28;20039;-60
2022/06/23 09:45:35;;;;;;;8.25;3.67;;;;;;;28.81;48.76;100914.84;5108757;28;19954;-59
2022/06/23 09:48:24;;;;;;;8.23;3.90;;;;;;;28.54;50.99;100921.66;5119117;28;20031;-60
2022/06/23 09:51:08;;;;;;;11.55;4.68;;;;;;;28.40;51.24;100916.59;5118913;28;20043;-61
2022/06/23 09:53:50;;;;;;;11.52;4.47;;;;;;;28.20;51.96;100899.53;5118890;28;20039;-60
2022/06/23 09:56:27;;;;;;;11.38;4.82;;;;;;;28.31;51.92;100912.91;5118932;28;20342;-61
2022/06/23 09:59:12;;;;;;;9.57;5.13;;;;;;;28.21;51.60;100912.00;5118531;28;20028;-60
2022/06/23 10:02:15;;;;;;;10.55;4.10;;;;;;;28.16;51.86;100913.34;5107084;28;20023;-60
2022/06/23 10:05:04;;;;;;;14.18;5.25;;;;;;;27.90;52.75;100913.72;5009524;28;20116;-60
2022/06/23 10:08:02;;;;;;;10.18;4.57;;;;;;;28.11;52.58;100894.88;5115296;28;20078;-60
2022/06/23 10:10:52;;;;;;;9.73;4.80;;;;;;;28.51;51.90;100910.31;5118538;28;20032;-60
2022/06/23 10:13:20;;;;;;;12.38;5.07;;;;;;;28.38;51.33;100908.69;5118415;28;20039;-60
2022/06/23 10:15:54;;;;;;;11.40;5.10;;;;;;;28.29;51.24;100898.72;5118962;28;20382;-60
2022/06/23 10:18:32;;;;;;;11.18;5.22;;;;;;;28.51;51.01;100907.63;5100529;28;20173;-61
2022/06/23 10:21:22;;;;;;;14.20;5.38;;;;;;;28.58;50.83;100904.22;5098037;28;20388;-59
2022/06/23 10:24:03;;;;;;;10.10;5.47;;;;;;;28.50;50.94;100909.44;5098069;28;20060;-60
2022/06/23 10:26:40;;;;;;;9.10;4.90;;;;;;;28.53;51.30;100911.03;5097838;28;20076;-62
2022/06/23 10:29:34;;;;;;;9.25;4.70;;;;;;;28.60;49.91;100913.03;5097653;28;20048;-61
2022/06/23 10:32:09;;;;;;;10.07;4.88;;;;;;;28.68;50.34;100913.22;5097640;28;20024;-61
2022/06/23 10:34:40;;;;;;;11.73;4.95;;;;;;;28.71;50.03;100904.03;5097766;28;20020;-60
2022/06/23 10:37:27;;;;;;;12.18;4.30;;;;;;;28.74;50.46;100901.06;5097647;28;20023;-60
2022/06/23 10:40:22;;;;;;;10.10;4.35;;;;;;;28.82;50.41;100900.41;5097248;28;20032;-60
2022/06/23 10:43:09;;;;;;;8.35;3.47;;;;;;;28.64;49.16;100898.31;5096725;28;20021;-60
2022/06/23 10:46:14;;;;;;;10.57;4.03;;;;;;;28.81;49.60;100882.53;5097628;28;20103;-59
2022/06/23 10:49:03;;;;;;;9.85;4.07;;;;;;;29.01;47.91;100885.16;5097539;28;20039;-60
2022/06/23 10:51:38;;;;;;;10.38;4.07;;;;;;;29.02;45.97;100877.91;5107146;28;20032;-59
2022/06/23 10:54:18;;;;;;;9.82;3.85;;;;;;;29.10;46.59;100878.91;5118378;28;20031;-59
2022/06/23 10:57:01;;;;;;;8.38;4.22;;;;;;;29.18;47.40;100875.53;5117515;28;20028;-58
2022/06/23 10:59:41;;;;;;;12.90;4.30;;;;;;;29.38;46.52;100865.63;5117726;28;20076;-59
2022/06/23 11:02:38;;;;;;;9.50;4.35;;;;;;;29.59;47.25;100871.78;5117779;28;20066;-60
2022/06/23 11:05:24;;;;;;;10.55;4.22;;;;;;;29.49;46.35;100872.75;5117565;28;20019;-59
2022/06/23 11:08:12;;;;;;;10.57;3.97;;;;;;;29.37;46.78;100861.22;5117500;28;20024;-58
2022/06/23 11:11:04;;;;;;;7.82;4.13;;;;;;;29.65;46.88;100873.03;5117543;28;20465;-60
2022/06/23 11:13:44;;;;;;;12.13;4.57;;;;;;;29.72;46.90;100868.78;5117297;28;20026;-59
2022/06/23 11:16:35;;;;;;;11.95;4.78;;;;;;;29.42;46.40;100867.94;5117276;28;20058;-59
2022/06/23 11:19:37;;;;;;;10.02;4.20;;;;;;;29.36;47.32;100870.31;5078061;28;20112;-60
2022/06/23 11:22:33;;;;;;;8.75;4.50;;;;;;;29.51;46.92;100846.50;5117159;28;20039;-59
2022/06/23 11:25:26;;;;;;;10.68;4.20;;;;;;;29.43;46.52;100863.41;5117235;28;20035;-60
2022/06/23 11:28:25;;;;;;;10.23;4.00;;;;;;;29.46;46.91;100867.63;5116784;28;20027;-59
2022/06/23 11:31:17;;;;;;;12.38;4.65;;;;;;;29.25;46.09;100865.91;5117130;28;20038;-59
2022/06/23 11:34:11;;;;;;;9.98;3.85;;;;;;;29.15;46.77;100854.25;5117009;28;20186;-58
2022/06/23 11:36:54;;;;;;;10.18;4.75;;;;;;;29.31;46.37;100872.56;5116875;28;20070;-58
2022/06/23 11:39:36;;;;;;;9.88;4.07;;;;;;;29.30;46.78;100860.06;5116822;28;20471;-59
2022/06/23 11:42:34;;;;;;;12.43;4.70;;;;;;;29.23;46.91;100867.88;5116747;28;20031;-60
2022/06/23 11:45:05;;;;;;;11.10;4.43;;;;;;;29.05;46.76;100866.88;5116711;28;20456;-60
2022/06/23 11:47:49;;;;;;;;;;;;;;;29.37;47.02;100854.00;5116908;28;20438;-60
2022/06/23 11:50:35;;;;;;;10.77;4.15;;;;;;;29.74;46.08;100864.09;5116685;28;20379;-59
2022/06/23 11:53:40;;;;;;;10.73;4.22;;;;;;;29.71;45.42;100850.88;5116506;28;20104;-60
2022/06/23 11:56:12;;;;;;;8.90;4.50;;;;;;;29.78;45.44;100844.75;5116226;28;20020;-60
2022/06/23 11:59:02;;;;;;;9.90;4.70;;;;;;;29.90;45.45;100853.56;5116410;28;20109;-60
2022/06/23 12:01:28;;;;;;;10.27;4.38;;;;;;;30.12;44.49;100852.41;5116755;28;20028;-60
2022/06/23 12:04:41;;;;;;;14.32;4.32;;;;;;;30.15;45.15;100846.69;5116494;28;20033;-59
2022/06/23 12:07:20;;;;;;;10.60;4.20;;;;;;;30.06;43.89;100843.03;5043333;28;20362;-60
2022/06/23 12:10:12;;;;;;;6.72;4.00;;;;;;;30.09;44.06;100844.59;5116395;28;20027;-60
2022/06/23 12:12:37;;;;;;;;;;;;;;;30.13;45.22;100844.13;5116843;28;20362;-58
2022/06/23 12:15:05;;;;;;;10.65;4.68;;;;;;;30.16;44.97;100842.16;5116481;28;20020;-59
2022/06/23 12:17:42;;;;;;;8.73;4.43;;;;;;;30.34;45.53;100838.53;5116241;28;20110;-58
2022/06/23 12:20:19;;;;;;;8.30;4.45;;;;;;;30.51;44.15;100839.59;5116308;28;20096;-60
2022/06/23 12:23:02;;;;;;;10.02;4.47;;;;;;;30.43;43.27;100847.59;5116016;28;20023;-59